Time;durP1;ratioP1;P1;durP2;ratioP2;P2;SDS_P1;SDS_P2;PMS_P1;PMS_P2;Temp;Humidity;BMP_temperature;BMP_pressure;BME280_temperature;BME280_humidity;BME280_pressure;Samples;Min_cycle;Max_cycle;Signal;HPM_P1;HPM_P2
2022/01/14 00:00:18;;;;;;;28.10;15.23;;;5.10;91.90;;;;;;4996824;28;20121;-81
2022/01/14 00:02:44;;;;;;;34.78;16.10;;;5.10;92.00;;;;;;5014428;28;20022;-81
2022/01/14 00:05:11;;;;;;;35.58;15.65;;;5.10;91.90;;;;;;4996962;28;20117;-81
2022/01/14 00:07:40;;;;;;;29.52;15.30;;;5.10;91.90;;;;;;5014190;28;20045;-81
2022/01/14 00:10:08;;;;;;;30.52;15.93;;;5.10;91.90;;;;;;5014286;28;20463;-81
2022/01/14 00:12:40;;;;;;;26.88;14.52;;;5.10;91.90;;;;;;5013343;28;20029;-81
2022/01/14 00:15:24;;;;;;;23.17;14.45;;;5.00;91.80;;;;;;4998326;28;20088;-81
2022/01/14 00:17:54;;;;;;;31.27;15.15;;;5.00;91.90;;;;;;4997071;28;20018;-81
2022/01/14 00:20:23;;;;;;;30.08;16.13;;;5.00;92.00;;;;;;4996926;28;20022;-81
2022/01/14 00:22:50;;;;;;;27.23;14.32;;;5.00;91.90;;;;;;4996923;28;20030;-81
2022/01/14 00:33:30;;;;;;;34.00;15.18;;;5.00;91.90;;;;;;5014535;28;20036;-81
2022/01/14 00:35:59;;;;;;;31.33;15.57;;;5.00;91.90;;;;;;4996835;28;20022;-81
2022/01/14 00:38:27;;;;;;;34.20;15.75;;;5.00;91.70;;;;;;4996831;28;20070;-81
2022/01/14 00:40:53;;;;;;;27.65;15.50;;;5.00;91.60;;;;;;5014812;28;20467;-81
2022/01/14 00:43:21;;;;;;;33.58;16.40;;;5.00;91.60;;;;;;5014348;28;20433;-81
2022/01/14 00:45:48;;;;;;;32.35;14.95;;;5.00;91.60;;;;;;4980725;28;20026;-81
2022/01/14 00:48:17;;;;;;;36.67;16.67;;;5.00;91.60;;;;;;5014332;28;20026;-82
2022/01/14 00:50:44;;;;;;;30.38;16.33;;;5.00;91.50;;;;;;4996647;28;20083;-81
2022/01/14 00:53:12;;;;;;;32.70;13.32;;;5.00;91.50;;;;;;4996709;28;20133;-80
2022/01/14 00:55:50;;;;;;;35.10;14.55;;;5.00;91.40;;;;;;4996472;28;20029;-79
2022/01/14 01:01:16;;;;;;;30.15;15.73;;;5.00;91.50;;;;;;5014865;28;20036;-80
2022/01/14 01:03:43;;;;;;;33.55;16.70;;;5.00;91.50;;;;;;5014209;28;20025;-79
2022/01/14 01:06:12;;;;;;;35.58;17.95;;;5.00;91.60;;;;;;5014324;28;20088;-79
2022/01/14 01:08:42;;;;;;;34.60;16.88;;;5.00;91.60;;;;;;4996590;28;20370;-80
2022/01/14 01:11:11;;;;;;;28.15;15.32;;;5.00;91.60;;;;;;4980461;28;20101;-80
2022/01/14 01:13:47;;;;;;;33.65;16.83;;;5.00;91.60;;;;;;5012865;28;20462;-81
2022/01/14 01:16:13;;;;;;;36.20;17.92;;;5.00;91.50;;;;;;5012903;28;20018;-80
2022/01/14 01:18:41;;;;;;;32.85;17.77;;;5.00;91.60;;;;;;5013706;28;20037;-81
2022/01/14 01:21:08;;;;;;;35.15;17.33;;;5.10;91.60;;;;;;5012985;28;20057;-81
2022/01/14 01:23:36;;;;;;;36.72;17.17;;;5.10;91.60;;;;;;4996311;28;20030;-81
2022/01/14 01:26:11;;;;;;;35.60;17.40;;;5.10;91.60;;;;;;5013743;28;20065;-81
2022/01/14 01:28:54;;;;;;;39.97;17.80;;;5.10;91.50;;;;;;4996068;28;20068;-81
2022/01/14 01:31:35;;;;;;;37.72;18.15;;;5.10;91.50;;;;;;5014292;28;20022;-80
2022/01/14 01:34:10;;;;;;;37.75;18.75;;;5.10;91.50;;;;;;4997977;28;20160;-81
2022/01/14 01:36:46;;;;;;;39.50;18.63;;;5.10;91.40;;;;;;5014237;28;20011;-81
2022/01/14 01:39:19;;;;;;;43.55;20.98;;;5.10;91.40;;;;;;4996128;28;20026;-81
2022/01/14 01:41:50;;;;;;;35.10;17.00;;;5.10;91.50;;;;;;4980610;28;20018;-80
2022/01/14 01:44:20;;;;;;;39.20;19.88;;;5.10;91.40;;;;;;4996568;28;20163;-81
2022/01/14 01:46:48;;;;;;;37.78;18.17;;;5.10;91.50;;;;;;4980042;28;20026;-80
2022/01/14 01:49:18;;;;;;;42.78;20.20;;;5.10;91.40;;;;;;4996051;28;20026;-81
2022/01/14 01:51:46;;;;;;;43.40;19.10;;;5.10;91.40;;;;;;4995907;28;20029;-80
2022/01/14 01:54:24;;;;;;;42.47;19.67;;;5.20;91.40;;;;;;4996099;28;20030;-82
2022/01/14 01:56:51;;;;;;;40.00;18.23;;;5.20;91.40;;;;;;4994785;28;20018;-81
2022/01/14 01:59:19;;;;;;;41.97;19.05;;;5.20;91.40;;;;;;4995843;28;20026;-80
2022/01/14 02:01:56;;;;;;;40.25;20.15;;;5.20;91.40;;;;;;4999100;28;20018;-81
2022/01/14 02:04:26;;;;;;;41.97;20.52;;;5.20;91.40;;;;;;5016249;28;20455;-81
2022/01/14 02:06:54;;;;;;;41.50;20.38;;;5.20;91.40;;;;;;4998799;28;20045;-80
2022/01/14 02:09:29;;;;;;;41.63;20.30;;;5.20;91.50;;;;;;4998543;28;20038;-79
2022/01/14 02:11:57;;;;;;;43.63;21.73;;;5.20;91.50;;;;;;5017558;28;20018;-81
2022/01/14 02:22:09;;;;;;;39.35;20.17;;;5.20;91.80;;;;;;5017254;28;20037;-80
2022/01/14 02:22:55;;;;;;;39.95;19.38;;;5.20;91.50;;;;;;5001829;28;20034;-81
2022/01/14 02:25:29;;;;;;;43.90;19.77;;;5.10;91.40;;;;;;4999046;28;20029;-80
2022/01/14 02:27:59;;;;;;;46.13;19.13;;;5.10;91.40;;;;;;4984095;28;20046;-80
2022/01/14 02:30:28;;;;;;;38.50;17.63;;;5.10;91.60;;;;;;4999368;28;20033;-81
2022/01/14 02:32:56;;;;;;;37.47;17.85;;;5.00;91.50;;;;;;4983037;28;20034;-81
2022/01/14 02:35:25;;;;;;;38.22;18.60;;;5.10;91.50;;;;;;4999212;28;20022;-79
2022/01/14 02:37:59;;;;;;;40.08;20.58;;;5.00;91.50;;;;;;5016334;28;20048;-80
2022/01/14 02:40:27;;;;;;;40.38;17.83;;;5.00;91.60;;;;;;5016616;28;20075;-81
2022/01/14 02:42:57;;;;;;;43.38;20.77;;;5.00;91.80;;;;;;5016421;28;20057;-80
2022/01/14 02:45:28;;;;;;;47.38;20.25;;;4.90;91.90;;;;;;4999460;28;20057;-80
2022/01/14 02:47:54;;;;;;;42.33;20.88;;;4.90;92.10;;;;;;4998804;28;20022;-79
2022/01/14 02:50:23;;;;;;;42.95;19.60;;;4.90;92.20;;;;;;4982802;28;20107;-81
2022/01/14 02:55:27;;;;;;;36.17;18.15;;;4.90;92.20;;;;;;5016672;28;20029;-81
2022/01/14 02:57:58;;;;;;;37.35;19.17;;;4.90;92.70;;;;;;4999738;28;20030;-80
2022/01/14 03:00:29;;;;;;;45.87;20.07;;;4.90;92.40;;;;;;5016320;28;20101;-80
2022/01/14 03:02:59;;;;;;;43.83;20.30;;;4.90;92.40;;;;;;4998468;28;20349;-79
2022/01/14 03:05:28;;;;;;;48.10;19.17;;;4.90;92.40;;;;;;4999092;28;20177;-81
2022/01/14 03:07:57;;;;;;;40.40;18.88;;;4.90;92.40;;;;;;5016155;28;20037;-80
2022/01/14 03:10:23;;;;;;;42.60;18.58;;;4.90;92.50;;;;;;4997553;28;20014;-79
2022/01/14 03:12:51;;;;;;;38.28;17.50;;;4.90;92.60;;;;;;4981830;28;20029;-80
2022/01/14 03:15:19;;;;;;;41.53;20.23;;;4.90;92.70;;;;;;5015887;28;20076;-80
2022/01/14 03:17:48;;;;;;;41.33;19.45;;;4.80;92.80;;;;;;4997969;28;20336;-80
2022/01/14 03:23:05;;;;;;;39.60;20.05;;;4.80;92.90;;;;;;5015804;28;20041;-80
2022/01/14 03:25:47;;;;;;;42.40;19.75;;;4.80;93.20;;;;;;5015503;28;20022;-80
2022/01/14 03:28:20;;;;;;;40.75;19.75;;;4.80;93.30;;;;;;5015943;28;20105;-80
2022/01/14 03:30:53;;;;;;;42.72;18.48;;;4.70;93.50;;;;;;4997890;28;20025;-81
2022/01/14 03:33:23;;;;;;;40.58;19.05;;;4.70;93.50;;;;;;5015619;28;20034;-79
2022/01/14 03:35:51;;;;;;;46.08;19.30;;;4.70;93.60;;;;;;4997794;28;20101;-80
2022/01/14 03:38:18;;;;;;;42.00;19.02;;;4.70;93.80;;;;;;5014904;28;20121;-80
2022/01/14 03:40:46;;;;;;;40.85;18.88;;;4.70;93.80;;;;;;4998002;28;20054;-80
2022/01/14 03:43:14;;;;;;;44.05;19.38;;;4.70;94.00;;;;;;5015644;28;20030;-80
2022/01/14 03:45:41;;;;;;;35.47;18.80;;;4.60;94.00;;;;;;5015432;28;20485;-80
2022/01/14 03:48:09;;;;;;;45.10;19.05;;;4.60;94.10;;;;;;5013898;28;20026;-79
2022/01/14 03:50:36;;;;;;;36.45;17.95;;;4.60;94.10;;;;;;4997590;28;20436;-80
2022/01/14 03:53:03;;;;;;;38.05;17.23;;;4.60;94.20;;;;;;4981337;28;20084;-80
2022/01/14 03:55:30;;;;;;;42.25;18.15;;;4.60;94.10;;;;;;4997654;28;20462;-79
2022/01/14 03:57:56;;;;;;;39.33;17.58;;;4.60;94.10;;;;;;5015108;28;20406;-80
2022/01/14 04:00:24;;;;;;;46.20;19.30;;;4.60;94.10;;;;;;4997109;28;20018;-80
2022/01/14 04:02:53;;;;;;;39.38;17.25;;;4.50;94.00;;;;;;4997174;28;20069;-80
2022/01/14 04:05:19;;;;;;;34.95;17.98;;;4.50;93.90;;;;;;4997273;28;20546;-80
2022/01/14 04:07:46;;;;;;;45.30;19.90;;;4.50;93.80;;;;;;4997041;28;20021;-80
2022/01/14 04:10:13;;;;;;;38.40;17.02;;;4.50;93.60;;;;;;5014953;28;20022;-80
2022/01/14 04:18:16;;;;;;;40.53;17.80;;;4.40;93.30;;;;;;4999935;28;20088;-80
2022/01/14 04:20:57;;;;;;;40.45;17.73;;;4.40;93.50;;;;;;4996759;28;20022;-80
2022/01/14 04:23:23;;;;;;;38.00;17.58;;;4.30;93.30;;;;;;5013942;28;20076;-80
2022/01/14 04:25:52;;;;;;;39.55;16.83;;;4.30;93.50;;;;;;4996793;28;20054;-80
2022/01/14 04:28:18;;;;;;;45.10;19.60;;;4.30;93.60;;;;;;5014246;28;20068;-79
2022/01/14 04:30:59;;;;;;;42.95;20.40;;;4.20;93.60;;;;;;4996882;28;20105;-79
2022/01/14 04:33:27;;;;;;;48.42;19.50;;;4.20;93.70;;;;;;5014350;28;20033;-80
2022/01/14 04:35:57;;;;;;;40.30;20.02;;;4.20;93.60;;;;;;4980541;28;20022;-80
2022/01/14 04:38:23;;;;;;;37.83;17.20;;;4.20;93.60;;;;;;4996938;28;20112;-80
2022/01/14 04:40:49;;;;;;;44.40;20.00;;;4.20;93.60;;;;;;4996343;28;20030;-80
2022/01/14 04:43:19;;;;;;;42.92;17.58;;;4.20;93.40;;;;;;4996909;28;20080;-80
2022/01/14 04:46:02;;;;;;;42.67;19.13;;;4.20;93.40;;;;;;5014123;28;20021;-79
2022/01/14 04:48:34;;;;;;;45.83;19.00;;;4.20;93.30;;;;;;5014033;28;20026;-79
2022/01/14 04:51:01;;;;;;;39.30;18.27;;;4.20;93.40;;;;;;4997017;28;20030;-79
2022/01/14 04:53:29;;;;;;;43.55;19.80;;;4.20;93.40;;;;;;4996659;28;20426;-80
2022/01/14 04:55:56;;;;;;;42.13;18.70;;;4.20;93.50;;;;;;5014182;28;20026;-79
2022/01/14 04:58:24;;;;;;;37.92;17.73;;;4.10;93.50;;;;;;4980258;28;20200;-80
2022/01/14 05:00:52;;;;;;;44.22;19.75;;;4.10;93.50;;;;;;4996557;28;20112;-80
2022/01/14 05:03:18;;;;;;;48.08;21.23;;;4.10;93.70;;;;;;4995938;28;20160;-80
2022/01/14 05:05:48;;;;;;;40.00;18.67;;;4.10;93.80;;;;;;5013680;28;20053;-80
2022/01/14 05:08:23;;;;;;;40.63;18.70;;;4.20;93.80;;;;;;4996759;28;20022;-80
2022/01/14 05:13:26;;;;;;;37.83;15.45;;;4.20;93.70;;;;;;5033935;28;20034;-80
2022/01/14 05:15:54;;;;;;;39.55;19.00;;;4.20;93.70;;;;;;5026780;28;20014;-80
2022/01/14 05:18:22;;;;;;;48.30;20.38;;;4.20;94.10;;;;;;5013577;28;20026;-80
2022/01/14 05:20:50;;;;;;;43.03;18.27;;;4.20;93.70;;;;;;5002999;28;20050;-80
2022/01/14 05:23:17;;;;;;;37.17;17.80;;;4.20;93.80;;;;;;4992926;28;20061;-80
2022/01/14 05:25:44;;;;;;;46.53;20.00;;;4.20;93.80;;;;;;4996761;28;20050;-80
2022/01/14 05:28:10;;;;;;;40.22;18.00;;;4.30;93.80;;;;;;5013961;28;20108;-80
2022/01/14 05:30:38;;;;;;;38.63;16.60;;;4.30;93.70;;;;;;5013537;28;20100;-80
2022/01/14 05:33:05;;;;;;;45.20;20.27;;;4.30;94.10;;;;;;5033570;28;20052;-78
2022/01/14 05:35:32;;;;;;;41.78;18.00;;;4.30;93.70;;;;;;5036653;28;20021;-80
2022/01/14 05:37:59;;;;;;;36.80;17.85;;;4.30;93.70;;;;;;5019596;28;20026;-81
2022/01/14 05:40:28;;;;;;;40.45;17.40;;;4.30;93.60;;;;;;5019568;28;20028;-81
2022/01/14 05:43:14;;;;;;;37.80;18.00;;;4.40;93.70;;;;;;5037028;28;20398;-81
2022/01/14 05:45:42;;;;;;;38.88;17.42;;;4.40;93.60;;;;;;5037001;28;20470;-80
2022/01/14 05:48:09;;;;;;;35.80;16.73;;;4.40;93.70;;;;;;5019324;28;20029;-81
2022/01/14 05:50:36;;;;;;;37.53;17.48;;;4.40;93.80;;;;;;5019588;28;20129;-80
2022/01/14 05:53:06;;;;;;;39.63;18.25;;;4.40;93.80;;;;;;5037020;28;20477;-80
2022/01/14 05:55:34;;;;;;;37.65;16.55;;;4.40;93.80;;;;;;5036755;28;20009;-79
2022/01/14 05:58:01;;;;;;;37.30;16.55;;;4.40;93.80;;;;;;5035609;28;20025;-81
2022/01/14 06:00:29;;;;;;;35.70;14.88;;;4.40;93.80;;;;;;5039449;28;20022;-85
2022/01/14 06:02:56;;;;;;;38.55;18.15;;;4.40;94.20;;;;;;5025056;28;20425;-83
2022/01/14 06:05:24;;;;;;;39.38;16.80;;;4.40;93.80;;;;;;5034361;28;20071;-84
2022/01/14 06:07:52;;;;;;;39.67;15.55;;;4.40;93.90;;;;;;5052135;28;20132;-83
2022/01/14 06:10:22;;;;;;;38.97;17.38;;;4.40;94.00;;;;;;5022074;28;20116;-88
2022/01/14 06:12:50;;;;;;;32.67;15.80;;;4.40;94.10;;;;;;5021802;28;20047;-88
2022/01/14 06:15:17;;;;;;;32.72;16.83;;;4.40;94.20;;;;;;5020666;28;20100;-88
2022/01/14 06:17:45;;;;;;;37.85;16.80;;;4.40;94.30;;;;;;5038545;28;20025;-86
2022/01/14 06:20:13;;;;;;;39.85;19.20;;;4.40;94.30;;;;;;5038396;28;20493;-89
2022/01/14 06:22:39;;;;;;;34.97;15.77;;;4.50;94.40;;;;;;5039335;28;20026;-89
2022/01/14 06:25:07;;;;;;;37.28;16.58;;;4.40;94.40;;;;;;5020161;28;20074;-89
2022/01/14 06:27:33;;;;;;;39.50;16.42;;;4.50;94.40;;;;;;5038724;28;20104;-90
2022/01/14 06:30:01;;;;;;;37.17;17.02;;;4.50;94.40;;;;;;5043006;28;20021;-90
2022/01/14 06:32:28;;;;;;;35.17;16.50;;;4.50;94.40;;;;;;5039937;28;20038;-89
2022/01/14 06:34:57;;;;;;;32.45;15.85;;;4.50;94.50;;;;;;5038235;28;20017;-88
2022/01/14 06:37:26;;;;;;;35.35;15.98;;;4.50;94.50;;;;;;5020342;28;20089;-88
2022/01/14 06:39:54;;;;;;;37.88;16.73;;;4.50;94.60;;;;;;5039547;28;20022;-88
2022/01/14 06:42:21;;;;;;;36.25;16.13;;;4.60;94.60;;;;;;5042637;28;20035;-90
2022/01/14 06:44:46;;;;;;;37.70;16.63;;;4.60;94.60;;;;;;5035084;28;20089;-92
2022/01/14 06:47:12;;;;;;;37.92;17.23;;;4.60;94.60;;;;;;5045884;28;20082;-91
2022/01/14 06:49:37;;;;;;;54.13;17.83;;;4.60;94.60;;;;;;5010438;28;20025;-89
2022/01/14 06:52:03;;;;;;;40.83;17.60;;;4.60;94.70;;;;;;5004012;28;20026;-92
2022/01/14 06:54:29;;;;;;;42.78;16.88;;;4.60;94.60;;;;;;5029660;28;20022;-90
2022/01/14 06:56:55;;;;;;;38.08;15.48;;;4.60;94.70;;;;;;5008013;28;20479;-92
2022/01/14 06:59:20;;;;;;;38.75;15.27;;;4.60;94.70;;;;;;5006067;28;20032;-89
2022/01/14 07:01:46;;;;;;;49.00;17.92;;;4.70;94.70;;;;;;5023526;28;20026;-91
2022/01/14 07:04:12;;;;;;;43.65;17.55;;;4.70;94.70;;;;;;5019668;28;20459;-89
2022/01/14 07:06:37;;;;;;;34.50;14.60;;;4.70;94.70;;;;;;5002964;28;20030;-91
2022/01/14 07:09:03;;;;;;;31.98;14.50;;;4.70;94.60;;;;;;5021221;28;20046;-89
2022/01/14 07:11:35;;;;;;;35.67;14.85;;;4.80;94.60;;;;;;5019235;28;20038;-83
2022/01/14 07:14:00;;;;;;;33.53;15.85;;;4.70;94.70;;;;;;5000124;28;20037;-85
2022/01/14 07:16:26;;;;;;;29.95;14.10;;;4.80;94.80;;;;;;5024682;28;20382;-91
2022/01/14 07:18:52;;;;;;;30.75;14.38;;;4.80;94.70;;;;;;4999429;28;20015;-77
2022/01/14 07:21:17;;;;;;;33.30;15.02;;;4.80;94.80;;;;;;5018794;28;20450;-78
2022/01/14 07:23:44;;;;;;;32.70;15.07;;;4.90;95.80;;;;;;4990274;28;20493;-76
2022/01/14 07:26:10;;;;;;;26.20;13.18;;;5.00;95.30;;;;;;5011613;28;20061;-78
2022/01/14 07:28:37;;;;;;;30.58;13.27;;;5.00;94.90;;;;;;4997519;28;20529;-77
2022/01/14 07:31:03;;;;;;;30.27;14.32;;;5.00;95.40;;;;;;4982881;28;20026;-80
2022/01/14 07:33:51;;;;;;;36.58;14.77;;;5.00;94.70;;;;;;4960713;28;20443;-80
2022/01/14 07:36:18;;;;;;;35.90;14.55;;;5.10;94.60;;;;;;4994523;28;20022;-78
2022/01/14 07:38:46;;;;;;;28.92;14.00;;;5.00;94.50;;;;;;4976899;28;20027;-83
2022/01/14 07:44:07;;;;;;;28.30;13.73;;;5.10;94.50;;;;;;4995539;28;20052;-79
2022/01/14 07:46:35;;;;;;;29.52;14.30;;;5.10;94.40;;;;;;4995243;28;20149;-82
2022/01/14 07:49:01;;;;;;;30.50;13.05;;;5.00;94.40;;;;;;4977342;28;20097;-80
2022/01/14 07:51:31;;;;;;;33.47;13.80;;;5.00;94.60;;;;;;4994412;28;20117;-78
2022/01/14 07:53:57;;;;;;;27.88;13.43;;;5.00;94.70;;;;;;4992968;28;20065;-81
2022/01/14 07:56:47;;;;;;;29.67;13.05;;;5.10;94.70;;;;;;4993738;28;20026;-81
2022/01/14 07:59:24;;;;;;;25.15;12.55;;;5.10;94.70;;;;;;4996726;28;20329;-79
2022/01/14 08:01:55;;;;;;;31.70;14.18;;;5.10;94.70;;;;;;4994818;28;20058;-79
2022/01/14 08:04:22;;;;;;;30.13;14.27;;;5.10;94.70;;;;;;4976823;28;20026;-80
2022/01/14 08:06:51;;;;;;;27.05;12.52;;;5.10;94.70;;;;;;4977837;28;20034;-80
2022/01/14 08:09:18;;;;;;;25.88;13.07;;;5.10;94.80;;;;;;5004345;28;20014;-80
2022/01/14 08:11:45;;;;;;;30.05;13.50;;;5.00;94.80;;;;;;4977652;28;20464;-85
2022/01/14 08:14:13;;;;;;;30.25;13.38;;;5.00;94.80;;;;;;4978176;28;20026;-81
2022/01/14 08:16:40;;;;;;;30.15;15.43;;;5.00;94.90;;;;;;4977666;28;20055;-80
2022/01/14 08:19:06;;;;;;;24.98;13.35;;;5.00;94.90;;;;;;4996105;28;20100;-83
2022/01/14 08:21:32;;;;;;;30.75;14.50;;;5.00;95.00;;;;;;5014207;28;20064;-81
2022/01/14 08:24:01;;;;;;;33.38;15.00;;;5.10;95.30;;;;;;4996117;28;20029;-78
2022/01/14 08:26:26;;;;;;;29.38;15.15;;;5.10;95.10;;;;;;5012531;28;20119;-77
2022/01/14 08:28:52;;;;;;;20.88;10.65;;;5.10;94.90;;;;;;4996224;28;20022;-77
2022/01/14 08:31:19;;;;;;;30.08;13.75;;;5.10;94.70;;;;;;4996262;28;20022;-79
2022/01/14 08:33:46;;;;;;;28.88;11.65;;;5.10;94.70;;;;;;5013663;28;20152;-80
2022/01/14 08:36:12;;;;;;;27.85;12.70;;;5.10;94.60;;;;;;4996537;28;20053;-78
2022/01/14 08:38:39;;;;;;;27.38;11.82;;;5.00;94.70;;;;;;5018378;28;20025;-80
2022/01/14 08:41:06;;;;;;;27.55;13.13;;;5.00;94.80;;;;;;5014423;28;20023;-80
2022/01/14 08:43:33;;;;;;;25.08;13.80;;;5.00;94.90;;;;;;5014290;28;20017;-80
2022/01/14 08:46:02;;;;;;;21.20;10.63;;;5.00;94.90;;;;;;4997905;28;20045;-80
2022/01/14 08:48:30;;;;;;;26.77;13.13;;;5.00;95.20;;;;;;5015879;28;20026;-79
2022/01/14 08:50:58;;;;;;;30.38;12.88;;;5.00;94.90;;;;;;4986363;28;20101;-80
2022/01/14 08:53:25;;;;;;;26.88;13.32;;;5.00;94.80;;;;;;4989024;28;20390;-81
2022/01/14 08:55:55;;;;;;;24.02;12.23;;;5.00;94.80;;;;;;5002409;28;20374;-82
2022/01/14 08:58:24;;;;;;;28.30;11.05;;;5.00;94.80;;;;;;4998755;28;20075;-79
2022/01/14 09:00:52;;;;;;;24.27;13.77;;;5.10;94.90;;;;;;5014336;28;20443;-79
2022/01/14 09:03:32;;;;;;;24.60;12.10;;;5.00;94.90;;;;;;4996198;28;20120;-79
2022/01/14 09:06:00;;;;;;;22.05;11.63;;;5.10;94.80;;;;;;5016872;28;20030;-84
2022/01/14 09:08:47;;;;;;;24.83;13.15;;;5.10;94.80;;;;;;5006204;28;20037;-86
2022/01/14 09:11:14;;;;;;;26.58;13.40;;;5.10;94.70;;;;;;5005799;28;20010;-82
2022/01/14 09:13:40;;;;;;;25.10;12.07;;;5.20;94.70;;;;;;5013732;28;20034;-84
2022/01/14 09:16:07;;;;;;;23.67;12.15;;;5.20;94.50;;;;;;5013667;28;20088;-85
2022/01/14 09:18:34;;;;;;;22.15;11.18;;;5.30;94.30;;;;;;4997710;28;20116;-84
2022/01/14 09:21:00;;;;;;;20.58;11.20;;;5.30;94.10;;;;;;5013650;28;20018;-82
2022/01/14 09:23:29;;;;;;;23.45;11.88;;;5.30;94.00;;;;;;5014528;28;20479;-79
2022/01/14 09:25:58;;;;;;;29.27;13.57;;;5.40;93.90;;;;;;4996918;28;20093;-82
2022/01/14 09:28:23;;;;;;;29.23;13.55;;;5.40;94.00;;;;;;5019994;28;20030;-83
2022/01/14 09:30:51;;;;;;;25.70;12.30;;;5.40;94.00;;;;;;4999624;28;20207;-79
2022/01/14 09:33:27;;;;;;;25.45;12.73;;;5.50;93.80;;;;;;4999339;28;20040;-80
2022/01/14 09:35:53;;;;;;;23.50;10.82;;;5.50;93.70;;;;;;5014466;28;20526;-85
2022/01/14 09:38:22;;;;;;;23.35;12.35;;;5.50;93.60;;;;;;5016424;28;20018;-83
2022/01/14 09:40:49;;;;;;;26.23;11.80;;;5.50;93.50;;;;;;5016649;28;20026;-84
2022/01/14 09:43:36;;;;;;;22.15;11.10;;;5.50;93.70;;;;;;4985605;28;20026;-82
2022/01/14 09:46:03;;;;;;;21.77;11.88;;;5.60;93.40;;;;;;5013539;28;20022;-82
2022/01/14 09:48:30;;;;;;;22.15;10.68;;;5.60;93.50;;;;;;5013314;28;20026;-80
2022/01/14 09:51:18;;;;;;;21.38;11.30;;;5.60;93.20;;;;;;5013173;28;20022;-88
2022/01/14 09:53:45;;;;;;;41.75;12.27;;;5.70;93.20;;;;;;5017417;28;20383;-81
2022/01/14 09:56:17;;;;;;;22.20;11.45;;;5.70;93.20;;;;;;4996447;28;20030;-86
2022/01/14 09:58:48;;;;;;;25.13;12.05;;;5.70;93.00;;;;;;5023878;28;20058;-84
2022/01/14 10:01:22;;;;;;;28.25;12.82;;;5.70;92.90;;;;;;5012947;28;20022;-78
2022/01/14 10:04:43;;;;;;;23.73;12.50;;;5.80;92.90;;;;;;4995299;28;20034;-80
2022/01/14 10:07:10;;;;;;;22.48;11.93;;;5.80;92.70;;;;;;4995508;28;20022;-81
2022/01/14 10:09:40;;;;;;;20.77;11.60;;;5.80;92.80;;;;;;5012965;28;20030;-81
2022/01/14 10:12:13;;;;;;;25.55;13.25;;;5.80;92.60;;;;;;5012742;28;20110;-80
2022/01/14 10:14:40;;;;;;;21.95;12.35;;;5.70;92.50;;;;;;5013111;28;20483;-79
2022/01/14 10:17:09;;;;;;;27.92;12.80;;;5.70;92.80;;;;;;4995200;28;20053;-78
2022/01/14 10:19:52;;;;;;;24.92;12.88;;;5.70;92.70;;;;;;4994535;28;20133;-79
2022/01/14 10:22:33;;;;;;;28.15;13.38;;;5.70;92.80;;;;;;4998288;28;20414;-83
2022/01/14 10:25:10;;;;;;;19.63;10.77;;;5.70;92.80;;;;;;5009179;28;20030;-80
2022/01/14 10:28:01;;;;;;;25.67;13.48;;;5.70;92.70;;;;;;4980493;28;20065;-79
2022/01/14 10:30:52;;;;;;;27.58;13.70;;;5.70;92.90;;;;;;5009573;28;20374;-82
2022/01/14 10:33:26;;;;;;;27.73;12.80;;;5.70;92.90;;;;;;4982148;28;20038;-79
2022/01/14 10:35:55;;;;;;;29.80;13.98;;;5.70;92.90;;;;;;4999805;28;20027;-81
2022/01/14 10:38:26;;;;;;;27.02;14.13;;;5.70;92.80;;;;;;5004599;28;20472;-80
2022/01/14 10:41:12;;;;;;;28.92;15.20;;;5.70;92.80;;;;;;5007616;28;20097;-82
2022/01/14 10:43:40;;;;;;;40.63;15.48;;;5.70;92.70;;;;;;5006002;28;20031;-82
2022/01/14 10:46:08;;;;;;;26.67;13.43;;;5.70;92.90;;;;;;4996062;28;20048;-82
2022/01/14 10:48:39;;;;;;;29.05;14.73;;;5.70;93.00;;;;;;5001882;28;20022;-81
2022/01/14 10:51:29;;;;;;;39.10;15.35;;;5.70;92.80;;;;;;4999764;28;20034;-81
2022/01/14 10:54:00;;;;;;;29.55;14.00;;;5.70;92.70;;;;;;5018553;28;20034;-80
2022/01/14 10:56:28;;;;;;;28.80;14.88;;;5.70;92.80;;;;;;4998734;28;20034;-84
2022/01/14 10:59:00;;;;;;;31.73;14.65;;;5.70;92.60;;;;;;5017729;28;20030;-83
2022/01/14 11:01:32;;;;;;;33.67;15.13;;;5.70;92.70;;;;;;4967843;28;20054;-82
2022/01/14 11:04:10;;;;;;;30.80;15.02;;;5.70;92.80;;;;;;4979494;28;20026;-81
2022/01/14 11:06:42;;;;;;;30.25;16.33;;;5.70;92.80;;;;;;4997939;28;20021;-84
2022/01/14 11:09:18;;;;;;;30.77;16.10;;;5.70;92.60;;;;;;4980548;28;20033;-81
2022/01/14 11:11:47;;;;;;;28.23;14.98;;;5.70;92.60;;;;;;4985155;28;20050;-84
2022/01/14 11:14:14;;;;;;;35.90;16.70;;;5.60;92.50;;;;;;4986089;28;20467;-82
2022/01/14 11:16:48;;;;;;;38.13;17.23;;;5.60;92.50;;;;;;4992426;28;20234;-81
2022/01/14 11:19:15;;;;;;;34.25;16.17;;;5.60;92.40;;;;;;4991720;28;20019;-81
2022/01/14 11:24:39;;;;;;;37.25;17.55;;;5.50;92.70;;;;;;4983103;28;20067;-82
2022/01/14 11:27:11;;;;;;;41.35;18.70;;;5.50;92.70;;;;;;4998995;28;20133;-79
2022/01/14 11:30:00;;;;;;;39.72;17.90;;;5.40;92.60;;;;;;4978858;28;20038;-82
2022/01/14 11:32:53;;;;;;;37.97;19.17;;;5.50;92.80;;;;;;4992392;28;20058;-89
2022/01/14 11:35:26;;;;;;;41.15;18.38;;;5.40;92.60;;;;;;4992620;28;20027;-90
2022/01/14 11:37:53;;;;;;;39.80;18.40;;;5.50;92.70;;;;;;4975466;28;20029;-80
2022/01/14 11:40:25;;;;;;;41.33;20.40;;;5.40;92.30;;;;;;4957683;28;20061;-81
2022/01/14 11:42:59;;;;;;;43.78;18.25;;;5.50;92.50;;;;;;4974210;28;20057;-82
2022/01/14 11:45:53;;;;;;;36.83;18.75;;;5.50;92.10;;;;;;4983520;28;20036;-82
2022/01/14 11:48:38;;;;;;;37.03;18.40;;;5.40;91.90;;;;;;4964871;28;20094;-83
2022/01/14 11:51:11;;;;;;;34.70;17.83;;;5.40;91.90;;;;;;4993864;28;20467;-80
2022/01/14 11:53:48;;;;;;;39.60;17.08;;;5.40;91.90;;;;;;4979156;28;20030;-81
2022/01/14 11:56:46;;;;;;;41.33;18.92;;;5.40;91.90;;;;;;4995622;28;20065;-78
2022/01/14 11:59:20;;;;;;;42.38;20.42;;;5.40;92.10;;;;;;4992339;28;20034;-80
2022/01/14 12:02:25;;;;;;;38.75;16.55;;;5.40;92.00;;;;;;4978518;28;20531;-79
2022/01/14 12:05:13;;;;;;;44.45;20.60;;;5.40;91.60;;;;;;4996040;28;20030;-81
2022/01/14 12:08:15;;;;;;;45.50;16.48;;;5.40;91.60;;;;;;4996286;28;20053;-77
2022/01/14 12:11:08;;;;;;;44.67;18.88;;;5.30;91.50;;;;;;4976963;28;20066;-77
2022/01/14 12:14:00;;;;;;;41.25;18.73;;;5.30;91.70;;;;;;4973700;28;20476;-85
2022/01/14 12:16:44;;;;;;;;;;;5.30;91.80;;;;;;4988990;28;20030;-80
2022/01/14 12:19:15;;;;;;;45.13;19.27;;;5.30;91.80;;;;;;4978998;28;19914;-77
2022/01/14 12:21:49;;;;;;;40.53;17.77;;;5.30;91.70;;;;;;4990997;28;20105;-77
2022/01/14 12:24:30;;;;;;;40.42;16.95;;;5.20;91.90;;;;;;4976901;28;20118;-85
2022/01/14 12:27:24;;;;;;;33.40;15.65;;;5.30;91.90;;;;;;4963280;28;20089;-81
2022/01/14 12:30:09;;;;;;;35.72;14.55;;;5.20;92.00;;;;;;4982712;28;20069;-81
2022/01/14 12:32:38;;;;;;;39.58;16.58;;;5.20;92.00;;;;;;4995911;28;20464;-84
2022/01/14 12:35:28;;;;;;;30.30;14.65;;;5.20;92.20;;;;;;4994614;28;20032;-78
2022/01/14 12:37:58;;;;;;;25.48;11.75;;;5.20;92.20;;;;;;4995256;28;20021;-81
2022/01/14 12:40:36;;;;;;;32.30;14.52;;;5.20;92.20;;;;;;4983577;28;20026;-78
2022/01/14 12:43:05;;;;;;;32.30;16.00;;;5.10;92.40;;;;;;4993389;28;20056;-77
2022/01/14 12:45:41;;;;;;;33.15;14.35;;;5.10;92.60;;;;;;4990255;28;20035;-82
2022/01/14 12:51:21;;;;;;;29.60;14.90;;;5.00;92.90;;;;;;4958451;28;20035;-79
2022/01/14 12:53:59;;;;;;;26.52;14.45;;;5.00;93.00;;;;;;4992372;28;20285;-81
2022/01/14 12:56:32;;;;;;;38.35;16.00;;;5.00;93.20;;;;;;4993058;28;20037;-80
2022/01/14 12:59:05;;;;;;;32.08;13.90;;;5.00;93.20;;;;;;4993586;28;20030;-82
2022/01/14 13:01:40;;;;;;;31.83;15.88;;;5.00;93.40;;;;;;4994683;28;20038;-84
2022/01/14 13:04:12;;;;;;;25.70;14.55;;;5.00;93.60;;;;;;4982597;28;20531;-82
2022/01/14 13:06:53;;;;;;;33.17;15.05;;;5.00;93.70;;;;;;4977327;28;20030;-87
2022/01/14 13:09:25;;;;;;;27.85;15.38;;;5.00;93.80;;;;;;4994650;28;20030;-83
2022/01/14 13:11:54;;;;;;;29.65;16.17;;;5.00;93.90;;;;;;4993217;28;20058;-82
2022/01/14 13:14:41;;;;;;;26.27;14.52;;;5.00;94.10;;;;;;4993987;28;20037;-78
2022/01/14 13:17:18;;;;;;;24.60;14.45;;;5.10;94.10;;;;;;4998885;28;20034;-83
2022/01/14 13:19:46;;;;;;;29.10;14.50;;;5.10;94.10;;;;;;4997994;28;20019;-83
2022/01/14 13:22:19;;;;;;;31.50;15.00;;;5.10;94.20;;;;;;4995110;28;20027;-82
2022/01/14 13:24:57;;;;;;;25.10;14.32;;;5.10;94.40;;;;;;4992916;28;20018;-83
2022/01/14 13:27:25;;;;;;;25.80;13.93;;;5.10;94.40;;;;;;4993199;28;20051;-83
2022/01/14 13:30:11;;;;;;;29.00;13.18;;;5.20;94.40;;;;;;4993926;28;20022;-83
2022/01/14 13:32:38;;;;;;;28.67;13.57;;;5.20;94.40;;;;;;4992527;28;20379;-82
2022/01/14 13:35:14;;;;;;;32.65;13.80;;;5.20;94.60;;;;;;4972964;28;20037;-82
2022/01/14 13:37:43;;;;;;;26.35;13.30;;;5.20;94.70;;;;;;4995854;28;20026;-82